Time;durP1;ratioP1;P1;durP2;ratioP2;P2;SDS_P1;SDS_P2;PMS_P1;PMS_P2;Temp;Humidity;BMP_temperature;BMP_pressure;BME280_temperature;BME280_humidity;BME280_pressure;Samples;Min_cycle;Max_cycle;Signal;HPM_P1;HPM_P2
2023/06/04 00:02:17;;;;;;;2.50;2.30;;;;;;;10.53;73.58;100736.87;89792;1265;1057903;-56
2023/06/04 00:06:46;;;;;;;3.30;2.30;;;;;;;10.50;73.50;100734.22;89763;1264;1057249;-56
2023/06/04 00:10:49;;;;;;;2.50;2.20;;;;;;;10.39;73.80;100735.36;89795;1265;1057450;-56
2023/06/04 00:14:52;;;;;;;3.70;2.20;;;;;;;10.28;73.53;100735.30;89719;1264;1057618;-56
2023/06/04 00:18:55;;;;;;;5.90;2.30;;;;;;;10.25;73.30;100734.97;89780;1265;1057223;-57
2023/06/04 00:22:58;;;;;;;2.30;1.40;;;;;;;10.26;74.28;100732.22;89718;1264;1057009;-56
2023/06/04 00:27:01;;;;;;;3.30;1.60;;;;;;;10.28;74.51;100734.37;89713;1265;1057663;-57
2023/06/04 00:31:05;;;;;;;4.10;3.30;;;;;;;10.28;74.38;100733.31;89603;1265;1057255;-56
2023/06/04 00:35:09;;;;;;;4.30;2.40;;;;;;;10.37;74.61;100728.42;89711;1265;1057898;-56
2023/06/04 00:39:14;;;;;;;4.80;1.90;;;;;;;10.39;73.66;100727.55;89685;1264;1057315;-56
2023/06/04 00:43:18;;;;;;;5.50;3.40;;;;;;;10.38;73.80;100728.71;89732;1264;1057087;-56
2023/06/04 00:47:43;;;;;;;2.70;2.10;;;;;;;10.37;73.72;100726.83;89742;1265;1057422;-56
2023/06/04 00:51:50;;;;;;;4.50;3.40;;;;;;;10.30;72.96;100727.47;89705;1264;1057181;-56
2023/06/04 00:55:55;;;;;;;6.30;3.40;;;;;;;10.25;73.23;100721.48;89688;1265;1057708;-56
2023/06/04 00:59:58;;;;;;;4.70;3.00;;;;;;;10.21;73.20;100719.67;89791;1264;1057996;-56
2023/06/04 01:04:27;;;;;;;3.80;3.50;;;;;;;10.15;73.15;100713.52;89686;1265;1058296;-57
2023/06/04 01:08:30;;;;;;;5.30;3.90;;;;;;;10.15;73.23;100708.95;89748;1268;1057649;-57
2023/06/04 01:12:34;;;;;;;7.60;3.60;;;;;;;10.18;74.11;100709.27;89723;1264;1057546;-56
2023/06/04 01:17:02;;;;;;;5.40;3.10;;;;;;;10.15;73.98;100711.55;89786;1264;1057353;-56
2023/06/04 01:21:18;;;;;;;7.10;4.10;;;;;;;10.19;74.18;100711.68;89684;1265;1057281;-56
2023/06/04 01:25:43;;;;;;;5.50;3.20;;;;;;;10.24;73.98;100712.16;89711;1265;1057248;-57
2023/06/04 01:29:49;;;;;;;4.40;3.40;;;;;;;10.22;72.83;100708.77;89764;1265;1057616;-56
2023/06/04 01:33:58;;;;;;;4.80;3.80;;;;;;;10.16;72.56;100706.39;89943;1264;1057124;-56
2023/06/04 01:38:01;;;;;;;5.20;3.60;;;;;;;10.06;72.43;100705.31;89893;1264;1057148;-56
2023/06/04 01:42:05;;;;;;;9.00;2.50;;;;;;;9.99;72.53;100703.86;89762;1264;1057530;-56
2023/06/04 01:46:07;;;;;;;6.40;3.50;;;;;;;9.90;73.23;100710.36;89813;1264;1057208;-56
2023/06/04 01:50:13;;;;;;;5.40;3.90;;;;;;;9.81;73.55;100710.51;89737;1265;1057587;-56
2023/06/04 01:54:17;;;;;;;4.10;3.10;;;;;;;9.71;73.45;100707.09;89803;1264;1057119;-56
2023/06/04 01:58:22;;;;;;;5.50;2.90;;;;;;;9.62;73.56;100705.27;89742;1267;1057699;-56
2023/06/04 02:02:25;;;;;;;3.50;3.00;;;;;;;9.50;74.06;100707.55;89733;1265;1057672;-57
2023/06/04 02:06:29;;;;;;;5.80;3.50;;;;;;;9.46;74.95;100702.91;89765;1265;1057518;-56
2023/06/04 02:10:32;;;;;;;5.40;3.70;;;;;;;9.44;75.19;100700.15;89773;1264;1056219;-56
2023/06/04 02:14:37;;;;;;;5.40;3.20;;;;;;;9.39;74.70;100704.56;89720;1266;1057244;-56
2023/06/04 02:18:40;;;;;;;8.40;2.80;;;;;;;9.34;74.60;100706.55;89782;1265;1057925;-56
2023/06/04 02:22:44;;;;;;;3.70;3.20;;;;;;;9.23;75.28;100708.17;89805;1265;1056328;-55
2023/06/04 02:26:49;;;;;;;7.90;3.40;;;;;;;8.85;76.35;100714.95;89701;1265;1057009;-56
2023/06/04 02:30:54;;;;;;;6.60;3.60;;;;;;;8.52;76.15;100720.70;89721;1265;1057202;-57
2023/06/04 02:34:57;;;;;;;5.70;3.00;;;;;;;8.22;76.54;100724.88;89753;1264;1057587;-57
2023/06/04 02:39:04;;;;;;;5.60;3.30;;;;;;;8.18;77.74;100718.79;89913;1265;1058698;-57
2023/06/04 02:43:07;;;;;;;3.80;2.00;;;;;;;8.31;76.96;100717.79;89909;1265;1057646;-56
2023/06/04 02:47:11;;;;;;;6.80;2.60;;;;;;;8.35;76.83;100719.12;89838;1264;1057673;-57
2023/06/04 02:51:14;;;;;;;5.30;2.50;;;;;;;8.38;76.86;100719.09;89768;1265;1058722;-57
2023/06/04 02:55:16;;;;;;;6.10;2.90;;;;;;;8.43;77.24;100717.55;89815;1265;1057484;-57
2023/06/04 02:59:22;;;;;;;5.70;2.30;;;;;;;8.45;77.13;100721.11;89693;1265;1057929;-56
2023/06/04 03:03:26;;;;;;;5.30;3.20;;;;;;;8.49;77.55;100724.80;89666;1265;1057267;-57
2023/06/04 03:07:31;;;;;;;1.70;1.60;;;;;;;8.53;78.02;100725.38;89739;1265;1057843;-56
2023/06/04 03:11:41;;;;;;;4.00;2.50;;;;;;;8.60;78.10;100724.79;89771;1269;1057105;-56
2023/06/04 03:15:46;;;;;;;4.80;2.80;;;;;;;8.73;78.03;100723.56;89827;1264;1057301;-56
2023/06/04 03:19:55;;;;;;;5.40;2.70;;;;;;;8.76;78.54;100727.27;89822;1265;1057590;-57
2023/06/04 03:23:59;;;;;;;4.30;2.80;;;;;;;8.77;79.90;100730.52;89747;1266;1057514;-57
2023/06/04 03:28:02;;;;;;;4.60;2.40;;;;;;;8.81;80.47;100731.34;89698;1266;1060561;-56
2023/06/04 03:32:07;;;;;;;22.80;4.20;;;;;;;8.87;81.14;100734.30;89740;1265;1056929;-57
2023/06/04 03:36:11;;;;;;;3.80;2.70;;;;;;;8.99;81.62;100736.84;89716;1265;1057755;-57
2023/06/04 03:40:16;;;;;;;2.60;2.10;;;;;;;9.07;81.69;100739.20;89699;1265;1057690;-57
2023/06/04 03:44:21;;;;;;;7.40;3.30;;;;;;;9.02;82.03;100743.92;89842;1268;1057550;-56
2023/06/04 03:48:24;;;;;;;5.80;3.30;;;;;;;9.07;83.04;100745.70;89831;1265;1056452;-56
2023/06/04 03:52:32;;;;;;;5.50;2.90;;;;;;;9.25;82.92;100743.96;89787;1265;1057238;-57
2023/06/04 03:56:35;;;;;;;7.30;3.00;;;;;;;9.34;82.49;100747.06;89776;1265;1056154;-57
2023/06/04 04:00:39;;;;;;;4.10;3.20;;;;;;;9.39;82.67;100754.68;89785;1266;1057585;-56
2023/06/04 04:04:43;;;;;;;6.60;3.50;;;;;;;9.40;83.66;100757.08;89713;1269;1057046;-57
2023/06/04 04:08:45;;;;;;;6.10;2.30;;;;;;;9.46;83.56;100757.92;89671;1265;1057583;-57
2023/06/04 04:12:48;;;;;;;5.80;3.10;;;;;;;9.67;84.72;100761.77;89764;1265;1058826;-57
2023/06/04 04:16:51;;;;;;;6.90;4.40;;;;;;;9.68;85.43;100756.89;89881;1264;1057251;-57
2023/06/04 04:20:55;;;;;;;6.60;3.80;;;;;;;9.92;84.21;100761.60;89801;1265;1057708;-57
2023/06/04 04:24:58;;;;;;;6.80;4.30;;;;;;;11.13;83.57;100754.69;89751;1265;1057270;-58
2023/06/04 04:29:08;;;;;;;10.80;5.00;;;;;;;12.34;79.04;100753.94;89793;1265;1057475;-57
2023/06/04 04:33:11;;;;;;;;;;;;;;;13.62;77.95;100747.02;89551;1265;1057115;-57
2023/06/04 04:37:14;;;;;;;6.20;3.80;;;;;;;15.07;72.14;100744.43;89406;1266;1059597;-57
2023/06/04 04:41:23;;;;;;;6.10;4.00;;;;;;;16.15;71.58;100751.02;89535;1265;1057763;-58
2023/06/04 04:45:26;;;;;;;5.40;3.50;;;;;;;16.89;65.84;100745.45;89551;1264;1060017;-57
2023/06/04 04:49:29;;;;;;;4.70;3.10;;;;;;;17.57;61.81;100744.18;89653;1264;1058432;-57
2023/06/04 04:53:32;;;;;;;5.40;2.80;;;;;;;18.21;60.12;100748.73;89704;1265;1058056;-57
2023/06/04 04:57:34;;;;;;;6.10;3.40;;;;;;;18.90;58.91;100744.23;89671;1264;1057099;-57
2023/06/04 05:01:39;;;;;;;5.50;3.80;;;;;;;19.55;56.65;100741.06;89709;1265;1057202;-57
2023/06/04 05:05:43;;;;;;;7.00;2.90;;;;;;;20.25;54.72;100745.89;89699;1267;1056669;-57
2023/06/04 05:09:46;;;;;;;6.40;4.40;;;;;;;20.57;53.41;100752.48;89881;1268;1057201;-58
2023/06/04 05:13:49;;;;;;;8.20;4.10;;;;;;;20.90;53.79;100748.31;89766;1265;1057594;-58
2023/06/04 05:17:56;;;;;;;4.90;3.70;;;;;;;21.48;51.13;100743.91;89842;1265;1057752;-58
2023/06/04 05:22:00;;;;;;;6.50;3.80;;;;;;;22.34;49.82;100746.08;89792;1264;1057710;-57
2023/06/04 06:18:15;;;;;;;4.00;2.90;;;;;;;23.37;46.86;100756.67;70851;1593;1057842;-58
2023/06/04 06:31:34;;;;;;;5.30;3.40;;;;;;;22.39;49.13;100764.77;88943;1266;1057216;-58
2023/06/04 06:35:38;;;;;;;5.70;3.90;;;;;;;22.69;48.80;100769.81;89623;1267;1057743;-58
2023/06/04 06:39:40;;;;;;;10.20;4.00;;;;;;;22.81;48.53;100770.34;89722;1269;1057570;-59
2023/06/04 06:43:48;;;;;;;5.50;3.50;;;;;;;23.22;48.12;100772.23;89919;1265;1057894;-58
2023/06/04 06:47:59;;;;;;;9.00;4.30;;;;;;;23.58;47.58;100775.02;89771;1265;1056206;-58
2023/06/04 06:52:03;;;;;;;4.80;3.30;;;;;;;23.77;47.48;100765.21;89786;1265;1057402;-58
2023/06/04 06:56:07;;;;;;;7.80;3.70;;;;;;;23.71;47.72;100767.14;89727;1265;1057421;-57
2023/06/04 07:00:23;;;;;;;3.60;2.40;;;;;;;23.58;48.14;100771.21;89692;1265;1057801;-58
2023/06/04 07:04:31;;;;;;;4.10;3.30;;;;;;;23.49;48.83;100774.21;89406;1266;1057693;-58
2023/06/04 07:08:35;;;;;;;7.80;3.70;;;;;;;23.76;47.60;100767.92;89665;1269;1039061;-58
2023/06/04 07:12:38;;;;;;;6.30;3.80;;;;;;;23.71;48.32;100770.61;89649;1269;1035186;-58
2023/06/04 07:16:45;;;;;;;3.70;2.40;;;;;;;24.01;47.36;100770.88;89715;1266;1036023;-58
2023/06/04 07:20:48;;;;;;;5.00;3.20;;;;;;;24.08;47.16;100769.30;89703;1267;1036031;-58
2023/06/04 07:24:57;;;;;;;5.80;3.20;;;;;;;24.02;47.10;100768.40;89770;1268;1036431;-58
2023/06/04 07:29:07;;;;;;;7.60;4.20;;;;;;;24.08;47.28;100770.52;89696;1266;1036220;-58
2023/06/04 07:33:11;;;;;;;11.60;3.50;;;;;;;23.89;48.25;100769.07;89648;1265;1035899;-59
2023/06/04 07:57:00;;;;;;;3.80;2.10;;;;;;;24.97;44.78;100774.60;78765;1266;1036750;-91
2023/06/04 08:01:11;;;;;;;3.70;1.90;;;;;;;25.12;43.61;100770.54;89672;1265;1036487;-55
2023/06/04 08:05:14;;;;;;;3.80;1.70;;;;;;;24.89;44.35;100767.23;89779;1265;1036369;-55
2023/06/04 08:09:18;;;;;;;2.20;1.70;;;;;;;24.90;42.88;100765.98;89757;1264;1036552;-56
2023/06/04 08:13:21;;;;;;;7.30;1.80;;;;;;;24.91;43.80;100764.77;89711;1265;1036735;-59
2023/06/04 08:17:25;;;;;;;5.20;2.30;;;;;;;25.02;43.81;100769.83;89834;1263;1036210;-59
2023/06/04 08:21:28;;;;;;;3.10;1.70;;;;;;;25.16;43.70;100765.16;89722;1264;1037048;-59
2023/06/04 08:25:32;;;;;;;2.00;1.30;;;;;;;25.36;41.63;100764.96;89763;1265;1035778;-59
2023/06/04 08:29:36;;;;;;;4.00;2.10;;;;;;;25.44;41.12;100765.92;89739;1268;1036187;-59
2023/06/04 08:33:45;;;;;;;3.60;1.50;;;;;;;25.43;41.04;100765.94;89781;1266;1036412;-59
2023/06/04 08:37:50;;;;;;;3.70;1.80;;;;;;;25.19;40.08;100764.25;89735;1267;1036488;-58
2023/06/04 08:42:29;;;;;;;2.80;1.40;;;;;;;25.26;40.53;100763.27;89709;1267;1036267;-58
2023/06/04 08:46:32;;;;;;;3.60;1.10;;;;;;;25.46;40.61;100760.43;89723;1264;1036065;-59
2023/06/04 08:50:36;;;;;;;2.80;1.00;;;;;;;25.59;39.39;100764.27;89716;1264;1036464;-58
2023/06/04 08:54:39;;;;;;;3.00;1.50;;;;;;;25.32;39.46;100768.79;89668;1267;1036003;-59
2023/06/04 08:58:48;;;;;;;4.30;1.80;;;;;;;25.22;40.44;100770.70;89621;1267;1036574;-58
2023/06/04 09:02:55;;;;;;;2.80;1.20;;;;;;;25.05;37.47;100777.08;89621;1265;1037096;-59
2023/06/04 09:07:29;;;;;;;17.50;2.20;;;;;;;24.84;38.96;100779.36;89750;1267;1036012;-58
2023/06/04 09:11:38;;;;;;;2.40;1.30;;;;;;;24.78;40.33;100777.90;89780;1264;1036569;-58
2023/06/04 09:15:41;;;;;;;4.50;1.80;;;;;;;24.51;39.62;100777.48;89785;1268;1036609;-58
2023/06/04 09:19:44;;;;;;;2.60;1.10;;;;;;;24.39;40.78;100777.28;89786;1264;1039289;-59
2023/06/04 09:23:47;;;;;;;4.30;1.80;;;;;;;24.36;39.91;100774.02;89778;1267;1036167;-58
2023/06/04 09:27:52;;;;;;;2.70;1.60;;;;;;;24.29;39.65;100772.23;89771;1265;1035783;-58
2023/06/04 09:31:58;;;;;;;11.80;1.70;;;;;;;24.11;39.28;100770.17;89749;1267;1036772;-59
2023/06/04 09:36:02;;;;;;;3.10;1.30;;;;;;;23.86;39.67;100774.23;89742;1268;1035866;-58
2023/06/04 09:40:08;;;;;;;2.70;1.50;;;;;;;24.03;40.73;100774.78;89681;1264;1036733;-59
2023/06/04 09:44:12;;;;;;;2.70;1.10;;;;;;;24.13;40.03;100773.61;89716;1268;1035864;-58
2023/06/04 09:48:26;;;;;;;1.90;1.10;;;;;;;24.29;40.63;100775.42;89735;1264;1035846;-59
2023/06/04 09:52:36;;;;;;;3.20;2.20;;;;;;;24.37;41.25;100770.03;89699;1267;1035879;-59
2023/06/04 09:56:41;;;;;;;2.30;1.10;;;;;;;24.41;40.79;100764.90;89718;1265;1035204;-58
2023/06/04 10:00:45;;;;;;;1.60;1.10;;;;;;;24.57;44.33;100760.58;89682;1267;1036234;-58
2023/06/04 10:04:57;;;;;;;4.10;1.10;;;;;;;24.69;42.80;100753.73;89704;1264;1036580;-60
2023/06/04 10:13:24;;;;;;;5.70;5.30;;;;;;;24.50;40.59;100756.59;89758;1267;1035833;-61
2023/06/04 10:17:30;;;;;;;1.70;0.80;;;;;;;24.24;40.40;100751.73;89788;1267;1036661;-59
2023/06/04 10:21:37;;;;;;;3.40;1.40;;;;;;;24.17;39.88;100751.64;89769;1264;1037304;-59
2023/06/04 10:25:47;;;;;;;4.80;1.90;;;;;;;24.09;41.01;100749.30;89655;1264;1036045;-87
2023/06/04 10:29:52;;;;;;;4.20;2.20;;;;;;;24.02;40.21;100743.22;89602;1269;1036016;-89
2023/06/04 10:33:56;;;;;;;3.10;1.10;;;;;;;23.95;39.21;100746.06;89458;1265;1035887;-89
2023/06/04 10:38:11;;;;;;;2.10;1.50;;;;;;;23.92;39.29;100743.08;89474;1266;1036102;-89
2023/06/04 10:42:16;;;;;;;1.80;0.80;;;;;;;23.98;40.69;100743.54;89304;1268;1036725;-89
2023/06/04 10:46:20;;;;;;;3.50;1.20;;;;;;;23.96;41.04;100743.80;89171;1264;1036204;-90
2023/06/04 10:50:24;;;;;;;5.50;1.50;;;;;;;24.05;39.25;100746.04;89218;1268;1035906;-87
2023/06/04 10:54:27;;;;;;;2.20;1.00;;;;;;;23.99;38.23;100746.98;88978;1267;1036279;-85
2023/06/04 10:58:33;;;;;;;0.90;0.70;;;;;;;23.92;38.38;100743.25;89143;1264;1039983;-89
2023/06/04 11:02:48;;;;;;;1.90;1.10;;;;;;;23.87;38.98;100740.10;89055;1268;1036102;-88
2023/06/04 11:07:08;;;;;;;;;;;;;;;23.88;38.87;100740.23;89206;1269;1034827;-88
2023/06/04 11:11:15;;;;;;;3.80;0.60;;;;;;;23.93;38.99;100735.83;89097;1268;1035881;-88
2023/06/04 11:15:41;;;;;;;1.10;0.70;;;;;;;23.93;37.05;100735.64;89188;1268;1036760;-89
2023/06/04 11:19:45;;;;;;;2.30;0.90;;;;;;;24.06;38.15;100734.58;89078;1270;1036100;-86
2023/06/04 11:23:55;;;;;;;0.70;0.70;;;;;;;24.17;36.86;100730.90;88963;1265;1035778;-88
2023/06/04 11:28:01;;;;;;;5.50;0.60;;;;;;;24.24;36.41;100730.91;88807;1271;1036990;-87
2023/06/04 11:32:05;;;;;;;;;;;;;;;24.08;38.16;100725.02;89189;1270;1035899;-88
2023/06/04 11:36:08;;;;;;;4.90;1.20;;;;;;;24.11;37.65;100725.39;89378;1268;1036501;-88
2023/06/04 11:40:17;;;;;;;0.90;0.50;;;;;;;24.19;36.98;100723.20;89387;1268;1036115;-84
2023/06/04 11:44:30;;;;;;;3.60;0.80;;;;;;;24.41;39.32;100727.06;89362;1269;1037495;-92
2023/06/04 11:48:37;;;;;;;4.00;2.60;;;;;;;24.62;37.21;100722.80;88413;1264;1036103;-86
2023/06/04 11:57:42;;;;;;;1.30;0.60;;;;;;;24.71;37.40;100713.39;89667;1269;1036144;-90
2023/06/04 12:01:48;;;;;;;3.70;1.70;;;;;;;24.71;36.74;100713.27;89253;1269;1036704;-86
2023/06/04 12:05:51;;;;;;;1.90;1.80;;;;;;;24.75;37.77;100716.75;89560;1267;1036711;-85
2023/06/04 12:10:05;;;;;;;3.50;1.00;;;;;;;24.64;39.07;100716.91;89175;1269;1036911;-91
2023/06/04 12:14:16;;;;;;;1.70;0.90;;;;;;;24.64;39.46;100712.89;89329;1266;1035714;-89
2023/06/04 12:18:25;;;;;;;0.80;0.60;;;;;;;24.80;36.90;100715.13;89244;1270;1036127;-87
2023/06/04 12:22:30;;;;;;;3.50;0.80;;;;;;;24.92;38.38;100708.77;88973;1268;1036761;-87
2023/06/04 12:26:37;;;;;;;2.40;1.60;;;;;;;24.96;37.36;100705.71;89334;1266;1036912;-87
2023/06/04 12:30:40;;;;;;;1.30;0.40;;;;;;;24.97;38.01;100704.91;89196;1268;1035786;-88
2023/06/04 12:34:44;;;;;;;1.10;0.50;;;;;;;24.98;36.85;100707.05;89243;1267;1037267;-88
2023/06/04 12:38:47;;;;;;;1.10;0.70;;;;;;;25.05;36.94;100705.61;89162;1269;1036675;-89
2023/06/04 12:42:51;;;;;;;1.10;0.60;;;;;;;24.82;36.35;100703.73;88855;1270;1036140;-87
2023/06/04 12:46:55;;;;;;;1.90;1.00;;;;;;;24.81;36.70;100703.38;89001;1270;1037226;-89
2023/06/04 12:50:59;;;;;;;1.80;0.60;;;;;;;25.01;37.33;100703.81;88634;1269;1036777;-88
2023/06/04 12:55:03;;;;;;;2.60;1.00;;;;;;;25.04;36.41;100702.92;88818;1266;1036235;-87
2023/06/04 12:59:07;;;;;;;2.40;1.00;;;;;;;25.08;37.29;100699.94;88832;1269;1036159;-88
2023/06/04 13:03:11;;;;;;;0.80;0.70;;;;;;;25.20;36.97;100693.19;88954;1267;1036164;-88
2023/06/04 13:07:14;;;;;;;2.70;1.40;;;;;;;25.30;35.88;100692.81;88986;1267;1035665;-89
2023/06/04 13:11:19;;;;;;;2.00;0.80;;;;;;;25.37;36.54;100692.05;88890;1268;1035560;-87
2023/06/04 13:15:23;;;;;;;2.80;0.90;;;;;;;25.24;35.33;100689.69;88947;1269;1037258;-88
2023/06/04 13:19:26;;;;;;;3.90;0.80;;;;;;;25.40;36.21;100685.50;88965;1268;1036390;-88
2023/06/04 13:23:30;;;;;;;1.20;0.90;;;;;;;25.45;37.06;100682.14;89412;1267;1036548;-86
2023/06/04 13:27:52;;;;;;;1.70;0.90;;;;;;;25.64;36.05;100682.10;89256;1267;1036851;-88
2023/06/04 13:31:56;;;;;;;1.60;0.50;;;;;;;25.69;35.16;100676.48;89083;1264;1036875;-88
2023/06/04 13:36:02;;;;;;;1.80;0.90;;;;;;;25.78;35.26;100672.80;89159;1270;1037268;-89
2023/06/04 13:40:06;;;;;;;1.70;1.20;;;;;;;25.86;36.06;100670.73;89256;1268;1037612;-88
2023/06/04 13:44:10;;;;;;;1.60;1.20;;;;;;;25.88;35.90;100675.80;89375;1267;1036159;-88
2023/06/04 13:52:48;;;;;;;3.20;0.60;;;;;;;25.88;35.20;100668.85;89796;1269;1036274;-90
2023/06/04 13:56:52;;;;;;;4.90;1.70;;;;;;;26.04;36.01;100664.63;89515;1269;1036250;-90
2023/06/04 14:00:55;;;;;;;4.50;0.80;;;;;;;26.09;35.22;100662.09;89312;1269;1036631;-89
2023/06/04 14:04:59;;;;;;;2.30;0.80;;;;;;;26.19;35.05;100662.45;89084;1270;1037673;-90
2023/06/04 14:09:03;;;;;;;5.50;1.30;;;;;;;26.27;34.75;100661.94;89452;1265;1036392;-88
2023/06/04 14:13:07;;;;;;;1.30;0.70;;;;;;;26.13;34.64;100657.23;89387;1267;1036298;-86
2023/06/04 14:17:11;;;;;;;1.00;0.60;;;;;;;26.18;33.59;100652.63;89447;1270;1035025;-89
2023/06/04 14:21:14;;;;;;;2.20;1.10;;;;;;;26.16;34.14;100654.60;89566;1269;1036099;-88
2023/06/04 14:25:17;;;;;;;5.40;1.60;;;;;;;26.28;33.95;100648.73;89184;1267;1036795;-89
2023/06/04 14:29:21;;;;;;;2.30;0.90;;;;;;;26.44;34.90;100650.95;89014;1264;1036359;-89
2023/06/04 14:33:24;;;;;;;3.70;1.00;;;;;;;26.37;34.06;100647.91;89394;1269;1039654;-88
2023/06/04 14:37:27;;;;;;;0.80;0.50;;;;;;;26.36;34.80;100645.52;89419;1269;1038210;-87
2023/06/04 14:41:31;;;;;;;0.60;0.40;;;;;;;26.32;35.03;100641.11;89111;1269;1036096;-88
2023/06/04 14:45:34;;;;;;;1.30;0.50;;;;;;;26.34;33.11;100638.36;89390;1269;1035941;-89
2023/06/04 14:49:37;;;;;;;2.60;0.50;;;;;;;26.46;32.54;100640.07;89325;1266;1036317;-89
2023/06/04 14:53:41;;;;;;;3.80;1.10;;;;;;;26.61;32.68;100634.13;89191;1267;1036663;-89
2023/06/04 14:57:44;;;;;;;0.80;0.60;;;;;;;26.70;32.79;100638.50;89356;1269;1036356;-88
2023/06/04 15:01:47;;;;;;;3.10;1.50;;;;;;;26.73;33.72;100629.99;89312;1266;1036005;-88
2023/06/04 15:05:52;;;;;;;3.00;1.10;;;;;;;26.67;32.46;100625.11;89223;1269;1036661;-90
2023/06/04 15:10:06;;;;;;;0.90;0.60;;;;;;;26.70;33.29;100618.27;89554;1270;1035828;-91
2023/06/04 15:14:10;;;;;;;1.40;0.70;;;;;;;26.73;32.83;100609.30;89461;1269;1036829;-90
2023/06/04 15:18:17;;;;;;;2.70;0.60;;;;;;;26.70;33.46;100609.92;89219;1267;1036059;-87
2023/06/04 15:22:22;;;;;;;1.60;0.50;;;;;;;26.55;31.81;100611.38;89164;1270;1036623;-88
2023/06/04 15:26:26;;;;;;;3.20;0.90;;;;;;;26.52;32.76;100609.09;88997;1268;1036505;-89
2023/06/04 15:30:33;;;;;;;1.40;0.60;;;;;;;26.50;31.53;100610.39;89006;1268;1036114;-89
2023/06/04 15:34:37;;;;;;;2.40;0.70;;;;;;;26.65;32.21;100609.88;88832;1267;1036584;-89
2023/06/04 15:38:40;;;;;;;1.50;0.90;;;;;;;26.68;32.87;100613.47;89043;1267;1036414;-89
2023/06/04 15:42:43;;;;;;;0.90;0.80;;;;;;;26.51;33.01;100608.73;88852;1269;1038636;-89
2023/06/04 15:46:46;;;;;;;0.50;0.30;;;;;;;26.46;32.02;100610.98;88929;1267;1036596;-89
2023/06/04 15:50:50;;;;;;;1.00;0.70;;;;;;;26.62;32.81;100606.05;89028;1269;1036020;-88
2023/06/04 15:54:53;;;;;;;1.10;0.60;;;;;;;26.84;32.65;100602.35;88978;1269;1036022;-88
2023/06/04 15:58:59;;;;;;;2.50;0.80;;;;;;;27.07;32.67;100595.48;89251;1269;1036768;-89
2023/06/04 16:03:03;;;;;;;2.70;0.90;;;;;;;27.14;32.25;100595.91;89384;1268;1036819;-90
2023/06/04 16:07:07;;;;;;;2.20;0.50;;;;;;;27.12;32.49;100595.02;89830;1269;1036523;-88
2023/06/04 16:11:11;;;;;;;1.50;0.80;;;;;;;26.86;32.58;100591.38;89080;1268;1036776;-89
2023/06/04 16:15:15;;;;;;;2.60;1.40;;;;;;;26.71;33.24;100588.38;89141;1264;1037378;-89
2023/06/04 16:19:18;;;;;;;1.30;0.80;;;;;;;26.63;34.49;100589.96;89132;1269;1035886;-88
2023/06/04 16:23:22;;;;;;;0.80;0.60;;;;;;;26.56;34.55;100590.71;89142;1269;1035877;-87
2023/06/04 16:27:26;;;;;;;2.30;0.80;;;;;;;26.43;35.03;100593.70;89114;1267;1036945;-89
2023/06/04 16:31:30;;;;;;;1.70;0.90;;;;;;;26.33;36.38;100594.87;89229;1269;1035433;-90
2023/06/04 16:35:37;;;;;;;2.20;1.10;;;;;;;26.33;34.85;100594.38;89182;1270;1035928;-90
2023/06/04 16:39:42;;;;;;;1.30;1.00;;;;;;;26.39;35.00;100593.70;89388;1268;1037406;-88
2023/06/04 16:43:46;;;;;;;6.40;1.30;;;;;;;26.26;34.83;100601.69;89341;1269;1036879;-88
2023/06/04 16:47:50;;;;;;;1.10;0.70;;;;;;;26.07;34.19;100597.65;89251;1267;1037105;-89
2023/06/04 16:56:27;;;;;;;1.10;1.00;;;;;;;25.75;36.42;100601.48;89731;1268;1036536;-90
2023/06/04 17:00:30;;;;;;;1.70;0.90;;;;;;;25.62;36.40;100601.55;89759;1267;1036221;-90
2023/06/04 17:04:34;;;;;;;1.60;1.00;;;;;;;25.45;36.05;100599.35;89815;1265;1036650;-89
2023/06/04 17:08:37;;;;;;;2.80;0.80;;;;;;;25.23;37.78;100596.98;89776;1266;1037867;-90
2023/06/04 17:12:45;;;;;;;0.50;0.40;;;;;;;25.10;38.26;100595.94;89675;1268;1036808;-89
2023/06/04 17:16:54;;;;;;;2.80;0.50;;;;;;;25.11;37.85;100595.31;89544;1268;1036966;-91
2023/06/04 17:25:33;;;;;;;1.50;0.70;;;;;;;25.01;41.49;100599.99;89804;1268;1036043;-90
2023/06/04 17:29:44;;;;;;;7.10;1.20;;;;;;;24.97;42.47;100601.35;89811;1269;1036896;-91
2023/06/04 17:33:50;;;;;;;0.50;0.40;;;;;;;24.72;40.47;100603.31;89743;1269;1036591;-91
2023/06/04 17:37:57;;;;;;;4.90;1.90;;;;;;;24.61;41.94;100604.83;89455;1270;1036074;-90
2023/06/04 17:46:16;;;;;;;4.20;1.60;;;;;;;24.37;45.11;100610.79;89836;1265;1037457;-91
2023/06/04 17:50:20;;;;;;;3.30;1.00;;;;;;;24.11;45.96;100615.39;89293;1264;1037280;-89
2023/06/04 17:54:23;;;;;;;6.10;3.70;;;;;;;23.90;43.41;100613.90;89350;1264;1036091;-91
2023/06/04 17:58:27;;;;;;;2.30;1.50;;;;;;;23.66;42.83;100613.02;89489;1269;1035368;-90
2023/06/04 18:02:31;;;;;;;2.60;1.00;;;;;;;23.47;43.05;100613.34;89038;1264;1039891;-91
2023/06/04 18:06:36;;;;;;;2.90;1.60;;;;;;;23.25;43.77;100617.31;88727;1269;1036372;-90
2023/06/04 18:10:43;;;;;;;1.40;1.10;;;;;;;23.01;44.78;100616.36;88708;1269;1038982;-89
2023/06/04 18:14:46;;;;;;;2.10;0.60;;;;;;;22.83;44.49;100610.04;88874;1264;1037070;-88
2023/06/04 18:18:50;;;;;;;2.60;0.90;;;;;;;22.68;44.42;100614.06;88991;1268;1036015;-88
2023/06/04 18:22:54;;;;;;;4.20;1.10;;;;;;;22.64;45.45;100622.52;89098;1269;1036858;-90
2023/06/04 18:26:59;;;;;;;3.60;0.80;;;;;;;22.58;44.97;100625.13;88923;1270;1037472;-89
2023/06/04 18:31:02;;;;;;;6.30;1.10;;;;;;;22.48;49.30;100626.80;89149;1265;1035900;-89
2023/06/04 18:35:06;;;;;;;1.50;1.10;;;;;;;22.24;50.45;100633.87;89036;1269;1036513;-89
2023/06/04 18:39:10;;;;;;;3.00;1.40;;;;;;;22.03;52.58;100638.31;88873;1269;1036807;-88
2023/06/04 18:43:13;;;;;;;1.00;0.90;;;;;;;21.93;48.02;100639.00;88886;1270;1038844;-89
2023/06/04 18:47:17;;;;;;;2.60;1.40;;;;;;;21.91;45.68;100642.18;88781;1267;1037184;-87
2023/06/04 18:51:21;;;;;;;2.60;0.70;;;;;;;21.80;44.12;100641.73;89175;1264;1036254;-88
2023/06/04 18:55:25;;;;;;;3.00;1.00;;;;;;;21.55;44.14;100646.55;88887;1267;1037424;-90
2023/06/04 18:59:28;;;;;;;4.20;1.10;;;;;;;21.30;44.76;100648.23;89150;1265;1036662;-89
2023/06/04 19:03:32;;;;;;;3.00;1.30;;;;;;;21.00;45.55;100653.55;88801;1268;1611769;-87
2023/06/04 19:07:37;;;;;;;1.30;1.10;;;;;;;20.68;46.19;100663.65;89464;1268;1036295;-90
2023/06/04 19:11:45;;;;;;;1.20;1.00;;;;;;;20.36;46.54;100670.67;89422;1269;1036100;-90
2023/06/04 19:15:52;;;;;;;1.40;1.00;;;;;;;20.04;46.70;100680.96;89376;1267;1036636;-89
2023/06/04 19:19:59;;;;;;;1.00;0.90;;;;;;;19.88;46.84;100683.38;89260;1268;1036086;-90
2023/06/04 19:24:08;;;;;;;1.00;0.70;;;;;;;19.71;47.02;100685.98;89531;1268;1036669;-90
2023/06/04 19:28:15;;;;;;;0.70;0.50;;;;;;;19.49;47.82;100683.58;89254;1268;1036937;-91
2023/06/04 19:32:19;;;;;;;2.80;0.90;;;;;;;19.29;48.29;100684.94;89238;1267;1035923;-92
2023/06/04 19:36:38;;;;;;;2.40;1.20;;;;;;;19.14;48.50;100692.36;89207;1267;1036956;-91
2023/06/04 19:54:49;;;;;;;3.90;1.50;;;;;;;18.84;47.87;100698.14;89640;1267;1036186;-91
2023/06/04 20:03:31;;;;;;;1.80;1.40;;;;;;;18.92;48.35;100701.91;70721;1599;1036153;-58
2023/06/04 20:08:11;;;;;;;2.70;1.30;;;;;;;18.94;48.47;100704.94;89525;1268;1036913;-91
2023/06/04 20:17:25;;;;;;;5.70;1.70;;;;;;;18.83;48.68;100708.55;89531;1267;1036650;-91
2023/06/04 20:25:45;;;;;;;3.50;1.10;;;;;;;18.78;48.59;100715.20;74873;1270;1037016;-58
2023/06/04 20:30:39;;;;;;;2.90;1.70;;;;;;;18.79;48.73;100716.35;89676;1269;1035947;-58
2023/06/04 20:34:42;;;;;;;11.20;2.40;;;;;;;18.72;49.71;100723.50;89660;1269;1036295;-58
2023/06/04 20:38:46;;;;;;;5.60;1.50;;;;;;;18.61;50.65;100724.20;89684;1269;1036644;-58
2023/06/04 20:42:50;;;;;;;248.60;45.40;;;;;;;18.44;50.52;100723.01;89595;1269;1036495;-58
2023/06/04 20:46:55;;;;;;;68.80;13.90;;;;;;;18.33;50.99;100728.35;89600;1269;1036177;-58
2023/06/04 20:50:58;;;;;;;39.80;10.10;;;;;;;18.25;51.56;100731.64;89682;1269;1035918;-58
2023/06/04 20:55:09;;;;;;;21.60;4.10;;;;;;;18.13;53.21;100730.91;89639;1270;1036378;-58
2023/06/04 20:59:14;;;;;;;6.40;2.30;;;;;;;17.95;55.23;100731.23;89725;1267;1035626;-59